Time;durP1;ratioP1;P1;durP2;ratioP2;P2;SDS_P1;SDS_P2;PMS_P1;PMS_P2;Temp;Humidity;BMP_temperature;BMP_pressure;BME280_temperature;BME280_humidity;BME280_pressure;Samples;Min_cycle;Max_cycle;Signal;HPM_P1;HPM_P2
2023/03/09 00:01:42;;;;;;;19.77;11.75;;;11.90;96.00;;;;;;6186632;23;20059;-76
2023/03/09 00:04:13;;;;;;;19.92;10.85;;;11.90;96.00;;;;;;6186066;23;20072;-75
2023/03/09 00:06:39;;;;;;;19.20;9.98;;;11.90;96.00;;;;;;6186223;23;20415;-75
2023/03/09 00:09:05;;;;;;;20.75;6.43;;;11.90;96.00;;;;;;6186579;23;20392;-76
2023/03/09 00:11:49;;;;;;;18.55;4.47;;;11.90;96.00;;;;;;6186453;23;20112;-75
2023/03/09 00:14:18;;;;;;;14.10;5.85;;;11.90;95.90;;;;;;6185948;23;20001;-74
2023/03/09 00:16:44;;;;;;;16.65;4.93;;;12.00;95.90;;;;;;6185817;23;20009;-76
2023/03/09 00:19:10;;;;;;;13.88;3.95;;;12.00;95.90;;;;;;6185935;23;20434;-73
2023/03/09 00:24:04;;;;;;;15.98;4.60;;;12.10;95.70;;;;;;6186789;23;20079;-75
2023/03/09 00:26:29;;;;;;;12.55;4.22;;;12.10;95.60;;;;;;6185818;23;20022;-74
2023/03/09 00:28:55;;;;;;;12.00;4.15;;;12.20;95.60;;;;;;6184870;23;20435;-73
2023/03/09 00:31:21;;;;;;;17.17;4.82;;;12.20;95.60;;;;;;6193269;23;20001;-73
2023/03/09 00:33:48;;;;;;;16.08;4.22;;;12.10;95.70;;;;;;6192251;23;20009;-66
2023/03/09 00:36:15;;;;;;;13.48;4.15;;;12.10;95.70;;;;;;6185716;23;20013;-73
2023/03/09 00:38:41;;;;;;;12.40;3.78;;;12.10;95.70;;;;;;6185700;23;20431;-77
2023/03/09 00:41:06;;;;;;;13.15;3.63;;;12.10;95.80;;;;;;6185770;23;20001;-78
2023/03/09 00:43:32;;;;;;;12.70;3.47;;;12.10;95.80;;;;;;6185950;23;20047;-78
2023/03/09 00:45:58;;;;;;;10.25;3.05;;;12.20;95.80;;;;;;6185690;23;20036;-76
2023/03/09 00:48:25;;;;;;;10.43;3.05;;;12.20;95.70;;;;;;6185173;23;20001;-74
2023/03/09 00:50:50;;;;;;;10.63;3.40;;;12.20;95.60;;;;;;6185176;23;20438;-68
2023/03/09 00:53:16;;;;;;;10.80;2.97;;;12.20;95.60;;;;;;6185391;23;20008;-66
2023/03/09 00:55:42;;;;;;;12.50;3.25;;;12.20;95.60;;;;;;6185311;23;20013;-67
2023/03/09 00:58:09;;;;;;;11.85;3.42;;;12.20;95.80;;;;;;6185483;23;20043;-66
2023/03/09 01:00:34;;;;;;;14.50;4.07;;;12.20;95.90;;;;;;6185220;23;20001;-66
2023/03/09 01:03:00;;;;;;;14.30;4.03;;;12.20;96.00;;;;;;6185138;23;20024;-66
2023/03/09 01:05:26;;;;;;;13.90;3.50;;;12.10;96.00;;;;;;6185097;23;20004;-66
2023/03/09 01:07:52;;;;;;;15.63;3.33;;;12.20;96.10;;;;;;6185476;23;20030;-66
2023/03/09 01:10:18;;;;;;;19.80;4.32;;;12.10;96.20;;;;;;6185137;23;20001;-67
2023/03/09 01:12:44;;;;;;;19.10;3.63;;;12.10;96.20;;;;;;6185143;23;20072;-66
2023/03/09 01:15:11;;;;;;;12.75;3.67;;;12.10;96.30;;;;;;6183951;23;20439;-67
2023/03/09 01:17:37;;;;;;;11.43;4.57;;;12.10;96.40;;;;;;6184795;23;20001;-67
2023/03/09 01:20:04;;;;;;;12.98;4.93;;;12.10;96.40;;;;;;6184939;23;20052;-67
2023/03/09 01:22:29;;;;;;;13.70;5.60;;;12.10;96.40;;;;;;6185354;23;20027;-67
2023/03/09 01:24:55;;;;;;;13.98;4.72;;;12.10;96.50;;;;;;6184879;23;20419;-67
2023/03/09 01:27:21;;;;;;;10.98;5.10;;;12.10;96.50;;;;;;6183330;23;20339;-67
2023/03/09 01:29:47;;;;;;;14.73;5.75;;;12.10;96.90;;;;;;6185039;23;20075;-68
2023/03/09 01:32:12;;;;;;;15.20;6.38;;;12.00;96.80;;;;;;6184807;23;20001;-69
2023/03/09 01:34:38;;;;;;;15.23;5.63;;;12.10;96.90;;;;;;6185186;23;20059;-67
2023/03/09 01:37:04;;;;;;;14.30;6.35;;;12.00;96.90;;;;;;6184980;23;20071;-67
2023/03/09 01:39:29;;;;;;;9.43;5.60;;;12.00;97.00;;;;;;6184841;23;20085;-65
2023/03/09 01:41:57;;;;;;;14.38;6.70;;;12.00;97.10;;;;;;6184635;23;20055;-66
2023/03/09 01:44:22;;;;;;;12.45;6.40;;;12.00;97.20;;;;;;6184708;23;20008;-68
2023/03/09 01:46:56;;;;;;;16.90;5.70;;;12.00;97.30;;;;;;6184171;23;20013;-67
2023/03/09 01:49:24;;;;;;;16.95;5.90;;;12.00;97.40;;;;;;6184600;23;20419;-67
2023/03/09 01:52:09;;;;;;;15.73;5.65;;;12.00;97.60;;;;;;6185138;23;20020;-67
2023/03/09 01:54:37;;;;;;;12.60;5.85;;;12.00;97.70;;;;;;6184801;23;20371;-66
2023/03/09 01:57:17;;;;;;;13.70;5.40;;;12.00;97.80;;;;;;6184707;23;20097;-67
2023/03/09 01:59:44;;;;;;;17.33;5.20;;;12.00;98.00;;;;;;6180725;23;20008;-67
2023/03/09 02:02:11;;;;;;;17.08;5.10;;;12.00;98.00;;;;;;6181359;23;20394;-67
2023/03/09 02:04:43;;;;;;;13.60;5.18;;;12.00;98.20;;;;;;6182811;23;20048;-66
2023/03/09 02:07:09;;;;;;;18.30;6.45;;;12.10;98.40;;;;;;6185103;23;20028;-67
2023/03/09 02:09:44;;;;;;;16.13;5.72;;;12.00;98.50;;;;;;6184671;23;20435;-67
2023/03/09 02:12:15;;;;;;;16.05;5.63;;;12.10;98.60;;;;;;6184515;23;19997;-66
2023/03/09 02:14:41;;;;;;;17.42;6.13;;;12.00;98.60;;;;;;6184106;23;20001;-67
2023/03/09 02:17:10;;;;;;;13.10;6.05;;;12.00;99.00;;;;;;6186250;23;20443;-67
2023/03/09 02:20:11;;;;;;;17.10;6.72;;;12.00;98.90;;;;;;6160437;23;20039;-66
2023/03/09 02:22:38;;;;;;;16.55;6.70;;;12.00;99.10;;;;;;6086430;23;20011;-67
2023/03/09 02:25:33;;;;;;;16.67;6.22;;;12.00;99.10;;;;;;6186762;23;20482;-66
2023/03/09 02:27:59;;;;;;;14.60;6.50;;;12.00;99.20;;;;;;6186558;23;20327;-67
2023/03/09 02:30:28;;;;;;;17.90;7.18;;;11.90;99.30;;;;;;6160104;23;20005;-67
2023/03/09 02:33:10;;;;;;;16.02;6.60;;;12.00;99.40;;;;;;6187429;23;20080;-67
2023/03/09 02:35:36;;;;;;;16.40;7.65;;;11.90;99.50;;;;;;6186399;23;20009;-71
2023/03/09 02:38:02;;;;;;;13.75;6.80;;;11.90;99.60;;;;;;6186795;23;19997;-67
2023/03/09 02:40:34;;;;;;;13.98;7.25;;;11.90;99.70;;;;;;6186911;23;20002;-65
2023/03/09 02:43:04;;;;;;;17.60;7.60;;;11.90;99.80;;;;;;6186477;23;20001;-68
2023/03/09 02:45:31;;;;;;;15.77;7.40;;;11.90;99.90;;;;;;6186597;23;20017;-66
2023/03/09 02:47:58;;;;;;;12.70;6.82;;;11.90;99.90;;;;;;6187291;23;19997;-76
2023/03/09 02:50:24;;;;;;;11.00;6.80;;;11.90;99.90;;;;;;6186571;23;20001;-78
2023/03/09 02:52:50;;;;;;;13.43;7.20;;;11.90;99.90;;;;;;6186376;23;20012;-78
2023/03/09 02:55:17;;;;;;;13.27;7.75;;;11.90;99.90;;;;;;6186443;23;20016;-78
2023/03/09 02:57:44;;;;;;;14.13;7.30;;;11.90;99.90;;;;;;6186477;23;20000;-79
2023/03/09 03:00:12;;;;;;;15.73;7.63;;;11.90;99.90;;;;;;6188297;23;20008;-74
2023/03/09 03:02:39;;;;;;;11.63;7.60;;;11.90;99.90;;;;;;6196141;23;20076;-77
2023/03/09 03:05:06;;;;;;;12.23;7.70;;;11.90;99.90;;;;;;6190611;23;20005;-67
2023/03/09 03:07:31;;;;;;;17.77;8.00;;;11.90;99.90;;;;;;6186549;23;19997;-66
2023/03/09 03:09:57;;;;;;;15.13;7.65;;;11.90;99.90;;;;;;6186497;23;20027;-67
2023/03/09 03:12:23;;;;;;;14.77;7.88;;;11.90;99.90;;;;;;6186308;23;20005;-73
2023/03/09 03:14:49;;;;;;;12.80;7.53;;;11.90;99.90;;;;;;6186151;23;20001;-77
2023/03/09 03:17:15;;;;;;;15.32;7.63;;;11.90;99.90;;;;;;6186301;23;20076;-77
2023/03/09 03:19:41;;;;;;;13.65;8.45;;;11.90;99.90;;;;;;6186315;23;20027;-79
2023/03/09 03:22:07;;;;;;;14.98;8.95;;;11.90;99.90;;;;;;6186148;23;20005;-78
2023/03/09 03:24:37;;;;;;;14.38;8.80;;;11.80;99.90;;;;;;6185986;23;20442;-72
2023/03/09 03:27:02;;;;;;;17.55;9.43;;;11.90;99.90;;;;;;6185777;23;20052;-76
2023/03/09 03:29:28;;;;;;;14.82;8.73;;;11.90;99.90;;;;;;6185819;23;20005;-77
2023/03/09 03:31:54;;;;;;;15.40;9.70;;;11.80;99.90;;;;;;6185903;23;20064;-74
2023/03/09 03:34:20;;;;;;;15.75;9.45;;;11.90;99.90;;;;;;6185851;23;20001;-78
2023/03/09 03:36:45;;;;;;;14.48;9.45;;;11.90;99.90;;;;;;6184330;23;20017;-78
2023/03/09 03:39:11;;;;;;;13.95;9.13;;;11.90;99.90;;;;;;6185765;23;20021;-73
2023/03/09 03:41:37;;;;;;;15.63;9.82;;;11.90;99.90;;;;;;6186199;23;20428;-78
2023/03/09 03:44:03;;;;;;;13.50;9.48;;;11.90;99.90;;;;;;6159950;23;20088;-76
2023/03/09 03:46:30;;;;;;;18.60;10.40;;;11.90;99.90;;;;;;6185923;23;20044;-78
2023/03/09 03:48:56;;;;;;;14.40;9.75;;;11.90;99.90;;;;;;6186264;23;20383;-75
2023/03/09 03:51:22;;;;;;;12.93;9.75;;;11.90;99.90;;;;;;6186202;23;19997;-75
2023/03/09 03:53:48;;;;;;;14.35;9.77;;;11.90;99.90;;;;;;6186023;23;20008;-75
2023/03/09 03:56:14;;;;;;;17.17;10.00;;;11.90;99.90;;;;;;6185787;23;20014;-77
2023/03/09 03:58:39;;;;;;;14.38;9.75;;;11.90;99.90;;;;;;6185526;23;20435;-76
2023/03/09 04:01:06;;;;;;;15.60;9.77;;;11.80;99.90;;;;;;6185313;23;20016;-76
2023/03/09 04:03:32;;;;;;;14.00;10.77;;;11.90;99.90;;;;;;6185331;23;20083;-76
2023/03/09 04:05:58;;;;;;;12.13;9.98;;;11.80;99.90;;;;;;6185672;23;20004;-73
2023/03/09 04:08:23;;;;;;;11.43;9.35;;;11.80;99.90;;;;;;6185921;23;20004;-78
2023/03/09 04:10:49;;;;;;;11.52;9.95;;;11.80;99.90;;;;;;6186025;23;20009;-74
2023/03/09 04:13:15;;;;;;;11.90;9.40;;;11.80;99.90;;;;;;6185833;23;20024;-71
2023/03/09 04:15:41;;;;;;;15.10;10.70;;;11.80;99.90;;;;;;6185547;23;20404;-67
2023/03/09 04:18:07;;;;;;;12.65;9.90;;;11.80;99.90;;;;;;6185779;23;20005;-67
2023/03/09 04:20:35;;;;;;;13.82;10.35;;;11.80;99.90;;;;;;6185704;23;20116;-65
2023/03/09 04:23:00;;;;;;;14.65;10.50;;;11.80;99.90;;;;;;6185681;23;20016;-67
2023/03/09 04:25:26;;;;;;;14.10;10.57;;;11.80;99.90;;;;;;6185816;23;20001;-67
2023/03/09 04:27:54;;;;;;;15.65;10.75;;;11.80;99.90;;;;;;6185929;23;20021;-66
2023/03/09 04:30:20;;;;;;;12.43;9.85;;;11.80;99.90;;;;;;6185736;23;20063;-67
2023/03/09 04:32:47;;;;;;;14.35;10.25;;;11.70;99.90;;;;;;6185568;23;20006;-66
2023/03/09 04:35:14;;;;;;;12.50;10.23;;;11.80;99.90;;;;;;6184828;23;20013;-67
2023/03/09 04:37:39;;;;;;;12.40;9.60;;;11.70;99.90;;;;;;6185818;23;20001;-67
2023/03/09 04:40:05;;;;;;;11.93;10.13;;;11.70;99.90;;;;;;6185089;23;19997;-67
2023/03/09 04:42:32;;;;;;;16.30;9.77;;;11.80;99.90;;;;;;6185296;23;20039;-67
2023/03/09 04:44:57;;;;;;;10.40;9.30;;;11.80;99.90;;;;;;6185106;23;20071;-66
2023/03/09 04:47:23;;;;;;;10.10;9.07;;;11.70;99.90;;;;;;6185367;23;20021;-66
2023/03/09 04:49:49;;;;;;;10.65;8.88;;;11.70;99.90;;;;;;6185498;23;20028;-67
2023/03/09 04:52:15;;;;;;;10.80;9.70;;;11.70;99.90;;;;;;6185350;23;20046;-66
2023/03/09 04:54:41;;;;;;;11.07;9.73;;;11.70;99.90;;;;;;6185289;23;20015;-67
2023/03/09 04:57:07;;;;;;;10.40;9.30;;;11.70;99.90;;;;;;6185129;23;20036;-66
2023/03/09 04:59:33;;;;;;;10.93;9.18;;;11.70;99.90;;;;;;6185362;23;19997;-69
2023/03/09 05:01:58;;;;;;;11.52;9.98;;;11.70;99.90;;;;;;6184884;23;20005;-67
2023/03/09 05:04:24;;;;;;;11.75;10.43;;;11.70;99.90;;;;;;6185053;23;20067;-67
2023/03/09 05:06:50;;;;;;;12.68;10.77;;;11.70;99.90;;;;;;6185012;23;20033;-67
2023/03/09 05:09:17;;;;;;;14.20;11.95;;;11.70;99.90;;;;;;6185554;23;20005;-67
2023/03/09 05:11:42;;;;;;;15.57;13.85;;;11.70;99.90;;;;;;6185293;23;20101;-67
2023/03/09 05:14:08;;;;;;;17.15;14.85;;;11.70;99.90;;;;;;6185346;23;20006;-67
2023/03/09 05:16:34;;;;;;;16.92;14.15;;;11.70;99.90;;;;;;6185220;23;20021;-66
2023/03/09 05:19:00;;;;;;;15.18;13.32;;;11.70;99.90;;;;;;6185264;23;20101;-67
2023/03/09 05:21:26;;;;;;;15.38;12.50;;;11.70;99.90;;;;;;6185190;23;20001;-68
2023/03/09 05:23:51;;;;;;;13.77;12.18;;;11.70;99.90;;;;;;6185630;23;20005;-68
2023/03/09 05:26:17;;;;;;;13.27;11.02;;;11.70;99.90;;;;;;6185222;23;20370;-67
2023/03/09 05:28:43;;;;;;;13.30;11.02;;;11.60;99.90;;;;;;6185282;23;20013;-67
2023/03/09 05:31:11;;;;;;;16.08;12.73;;;11.60;99.90;;;;;;6185029;23;20024;-68
2023/03/09 05:33:37;;;;;;;18.52;16.60;;;11.60;99.90;;;;;;6185407;23;20005;-66
2023/03/09 05:36:13;;;;;;;18.90;16.70;;;11.60;99.90;;;;;;6184773;23;20339;-66
2023/03/09 05:38:39;;;;;;;17.17;15.38;;;11.60;99.90;;;;;;6184901;23;20004;-66
2023/03/09 05:41:05;;;;;;;16.83;14.90;;;11.60;99.90;;;;;;6184866;23;20001;-66
2023/03/09 05:43:31;;;;;;;16.90;13.98;;;11.60;99.90;;;;;;6185445;23;20060;-68
2023/03/09 05:45:56;;;;;;;14.40;12.90;;;11.60;99.90;;;;;;6184965;23;20028;-67
2023/03/09 05:48:22;;;;;;;13.75;11.65;;;11.60;99.90;;;;;;6184675;23;20008;-68
2023/03/09 05:50:48;;;;;;;14.00;12.43;;;11.60;99.90;;;;;;6184592;23;20147;-66
2023/03/09 05:53:14;;;;;;;14.27;12.32;;;11.60;99.90;;;;;;6185228;23;20001;-68
2023/03/09 05:55:40;;;;;;;13.05;11.75;;;11.60;99.90;;;;;;6185036;23;20013;-67
2023/03/09 05:58:06;;;;;;;11.80;10.60;;;11.60;99.90;;;;;;6185082;23;20055;-67
2023/03/09 06:00:31;;;;;;;13.82;12.40;;;11.60;99.90;;;;;;6184998;23;20043;-68
2023/03/09 06:02:57;;;;;;;14.18;11.90;;;11.60;99.90;;;;;;6184837;23;19997;-68
2023/03/09 06:05:23;;;;;;;10.02;8.98;;;11.60;99.90;;;;;;6184873;23;20028;-67
2023/03/09 06:07:51;;;;;;;11.02;9.93;;;11.60;99.90;;;;;;6184458;23;20028;-67
2023/03/09 06:10:17;;;;;;;11.02;9.88;;;11.60;99.90;;;;;;6184576;23;20005;-67
2023/03/09 06:12:43;;;;;;;13.00;11.73;;;11.60;99.90;;;;;;6183241;23;20519;-69
2023/03/09 06:15:09;;;;;;;13.15;10.73;;;11.50;99.90;;;;;;6184215;23;20088;-67
2023/03/09 06:17:35;;;;;;;10.00;9.00;;;11.50;99.90;;;;;;6186486;23;20005;-80
2023/03/09 06:20:02;;;;;;;9.60;8.70;;;11.60;99.90;;;;;;6185050;23;20004;-80
2023/03/09 06:22:28;;;;;;;9.45;8.15;;;11.60;99.90;;;;;;6184983;23;20015;-79
2023/03/09 06:24:53;;;;;;;9.80;8.55;;;11.50;99.90;;;;;;6184767;23;20386;-79
2023/03/09 06:27:19;;;;;;;10.02;8.05;;;11.60;99.90;;;;;;6184803;23;20001;-79
2023/03/09 06:29:45;;;;;;;9.02;7.97;;;11.60;99.90;;;;;;6184743;23;20008;-79
2023/03/09 06:32:10;;;;;;;8.23;7.45;;;11.50;99.90;;;;;;6184635;23;20060;-79
2023/03/09 06:34:36;;;;;;;8.15;7.10;;;11.50;99.90;;;;;;6184908;23;20005;-79
2023/03/09 06:37:02;;;;;;;9.23;6.88;;;11.60;99.90;;;;;;6184733;23;20036;-76
2023/03/09 06:39:28;;;;;;;7.70;6.88;;;11.50;99.90;;;;;;6185007;23;20004;-79
2023/03/09 06:41:54;;;;;;;8.45;7.05;;;11.60;99.90;;;;;;6184211;23;20068;-76
2023/03/09 06:44:20;;;;;;;8.23;6.32;;;11.50;99.90;;;;;;6184538;23;20230;-75
2023/03/09 06:46:45;;;;;;;8.70;6.72;;;11.50;99.90;;;;;;6182472;23;20029;-79
2023/03/09 06:49:11;;;;;;;10.27;7.10;;;11.60;99.90;;;;;;6184540;23;20313;-79
2023/03/09 06:51:37;;;;;;;10.95;6.95;;;11.60;99.90;;;;;;6184833;23;20008;-80
2023/03/09 06:54:03;;;;;;;10.07;6.80;;;11.60;99.90;;;;;;6188352;23;20435;-78
2023/03/09 06:56:28;;;;;;;8.65;6.65;;;11.60;99.90;;;;;;6190288;23;20013;-76
2023/03/09 06:58:54;;;;;;;10.38;7.90;;;11.60;99.90;;;;;;6190396;23;20472;-76
2023/03/09 07:01:20;;;;;;;9.30;7.22;;;11.60;99.90;;;;;;6191947;23;20005;-74
2023/03/09 07:03:46;;;;;;;7.38;6.22;;;11.60;99.90;;;;;;6160323;23;20008;-68
2023/03/09 07:06:12;;;;;;;9.02;6.60;;;11.60;99.90;;;;;;6186244;23;20005;-67
2023/03/09 07:08:37;;;;;;;6.82;5.78;;;11.60;99.90;;;;;;6186508;23;20363;-69
2023/03/09 07:11:03;;;;;;;21.05;6.18;;;11.50;99.90;;;;;;6186638;23;20047;-68
2023/03/09 07:13:32;;;;;;;7.43;5.50;;;11.60;99.90;;;;;;6183944;23;20005;-66
2023/03/09 07:15:57;;;;;;;7.53;5.97;;;11.60;99.90;;;;;;6187118;23;20009;-68
2023/03/09 07:18:23;;;;;;;12.27;5.78;;;11.60;99.90;;;;;;6185448;23;20056;-69
2023/03/09 07:20:49;;;;;;;11.48;5.65;;;11.60;99.90;;;;;;6185260;23;20001;-67
2023/03/09 07:23:15;;;;;;;11.15;5.65;;;11.60;99.90;;;;;;6185588;23;20005;-67
2023/03/09 07:25:41;;;;;;;9.18;5.50;;;11.60;99.90;;;;;;6183884;23;20084;-71
2023/03/09 07:28:08;;;;;;;10.68;5.75;;;11.60;99.90;;;;;;6184286;23;20039;-68
2023/03/09 07:30:35;;;;;;;14.63;6.97;;;11.60;99.90;;;;;;6185577;23;20371;-67
2023/03/09 07:33:01;;;;;;;12.88;6.35;;;11.60;99.90;;;;;;6185080;23;20458;-67
2023/03/09 07:35:27;;;;;;;9.88;5.78;;;11.60;99.90;;;;;;6185357;23;20088;-71
2023/03/09 07:37:53;;;;;;;11.05;5.60;;;11.60;99.90;;;;;;6185731;23;20005;-75
2023/03/09 07:40:20;;;;;;;11.23;5.80;;;11.60;99.90;;;;;;6185693;23;20012;-73
2023/03/09 07:42:52;;;;;;;9.32;5.03;;;11.70;99.90;;;;;;6185525;23;20001;-72
2023/03/09 07:45:18;;;;;;;11.73;5.10;;;11.70;99.90;;;;;;6185516;23;20011;-67
2023/03/09 07:47:44;;;;;;;14.07;4.85;;;11.70;99.90;;;;;;6185686;23;20005;-68
2023/03/09 07:50:10;;;;;;;8.07;4.55;;;11.70;99.90;;;;;;6185740;23;20076;-66
2023/03/09 07:52:37;;;;;;;11.27;4.72;;;11.70;99.90;;;;;;6184295;23;20037;-69
2023/03/09 07:55:03;;;;;;;8.93;4.30;;;11.70;99.90;;;;;;6185849;23;20025;-66
2023/03/09 07:57:32;;;;;;;11.18;4.85;;;11.70;99.90;;;;;;6185867;23;20100;-69
2023/03/09 07:59:58;;;;;;;10.23;4.57;;;11.70;99.90;;;;;;6185960;23;20072;-71
2023/03/09 08:02:24;;;;;;;14.15;5.35;;;11.70;99.90;;;;;;6185512;23;20525;-67
2023/03/09 08:04:51;;;;;;;13.98;5.07;;;11.80;99.90;;;;;;6186250;23;20015;-66
2023/03/09 08:07:17;;;;;;;11.38;4.60;;;11.70;99.90;;;;;;6185558;23;20005;-67
2023/03/09 08:09:43;;;;;;;11.60;5.20;;;11.70;99.90;;;;;;6185759;23;20005;-67
2023/03/09 08:12:09;;;;;;;18.95;6.22;;;11.80;99.90;;;;;;6185973;23;19997;-67
2023/03/09 08:14:35;;;;;;;13.48;4.93;;;11.80;99.90;;;;;;6185708;23;20327;-67
2023/03/09 08:17:03;;;;;;;15.82;5.32;;;11.80;99.90;;;;;;6186086;23;20088;-67
2023/03/09 08:19:29;;;;;;;17.83;5.47;;;11.80;99.90;;;;;;6185911;23;20136;-72
2023/03/09 08:21:55;;;;;;;14.55;4.25;;;11.90;99.90;;;;;;6186054;23;20005;-67
2023/03/09 08:24:21;;;;;;;15.10;4.63;;;11.80;99.90;;;;;;6185853;23;20028;-67
2023/03/09 08:26:47;;;;;;;9.93;4.00;;;11.90;99.90;;;;;;6185953;23;20008;-70
2023/03/09 08:29:13;;;;;;;17.02;4.63;;;11.90;99.90;;;;;;6185899;23;19997;-67
2023/03/09 08:31:39;;;;;;;12.00;4.00;;;11.90;99.90;;;;;;6186178;23;20113;-67
2023/03/09 08:34:05;;;;;;;14.05;4.72;;;11.90;99.90;;;;;;6186011;23;20071;-67
2023/03/09 08:36:31;;;;;;;16.00;4.53;;;11.90;99.90;;;;;;6185511;23;20017;-67
2023/03/09 08:38:57;;;;;;;16.38;4.65;;;11.90;99.90;;;;;;6185906;23;20001;-68
2023/03/09 08:41:23;;;;;;;18.38;4.10;;;11.90;99.90;;;;;;6185835;23;20001;-67
2023/03/09 08:43:50;;;;;;;13.35;3.47;;;11.90;99.90;;;;;;6185796;23;20008;-67
2023/03/09 08:46:16;;;;;;;19.33;3.90;;;11.90;99.90;;;;;;6185506;23;20088;-67
2023/03/09 08:48:42;;;;;;;17.52;4.25;;;11.90;99.90;;;;;;6185422;23;20072;-68
2023/03/09 08:51:09;;;;;;;16.70;4.25;;;11.90;99.90;;;;;;6185341;23;20024;-68
2023/03/09 08:53:37;;;;;;;15.80;3.55;;;12.00;99.90;;;;;;6185420;23;20032;-67
2023/03/09 08:56:08;;;;;;;12.88;4.22;;;12.00;99.90;;;;;;6185217;23;20016;-67
2023/03/09 08:58:34;;;;;;;17.83;4.20;;;12.00;99.90;;;;;;6185733;23;20029;-68
2023/03/09 09:01:02;;;;;;;13.15;4.22;;;12.00;99.90;;;;;;6184195;23;20063;-67
2023/03/09 09:03:29;;;;;;;13.38;4.18;;;12.10;99.90;;;;;;6185359;23;20449;-67
2023/03/09 09:05:55;;;;;;;12.27;3.40;;;12.10;99.90;;;;;;6185742;23;19997;-67
2023/03/09 09:08:21;;;;;;;13.80;3.40;;;12.10;99.90;;;;;;6185169;23;20001;-67
2023/03/09 09:10:47;;;;;;;13.02;3.60;;;12.10;99.90;;;;;;6185301;23;20028;-68
2023/03/09 09:13:13;;;;;;;17.88;4.93;;;12.20;99.90;;;;;;6185509;23;20293;-67
2023/03/09 09:15:41;;;;;;;15.25;5.57;;;12.20;99.90;;;;;;6183495;23;20013;-67
2023/03/09 09:18:06;;;;;;;18.67;6.10;;;12.10;99.90;;;;;;6186128;23;20036;-67
2023/03/09 09:20:33;;;;;;;15.32;4.88;;;12.10;99.90;;;;;;6185459;23;20454;-67
2023/03/09 09:22:58;;;;;;;15.90;5.25;;;12.10;99.90;;;;;;6185297;23;20005;-67
2023/03/09 09:25:25;;;;;;;14.27;4.30;;;12.10;99.90;;;;;;6185215;23;20348;-70
2023/03/09 09:27:51;;;;;;;12.13;3.63;;;12.10;99.90;;;;;;6185422;23;20028;-67
2023/03/09 09:30:20;;;;;;;13.98;3.95;;;12.10;99.90;;;;;;6185378;23;20346;-67
2023/03/09 09:32:46;;;;;;;15.07;3.85;;;12.20;99.90;;;;;;6185679;23;20005;-67
2023/03/09 09:35:12;;;;;;;18.73;4.88;;;12.20;99.90;;;;;;6185284;23;20313;-67
2023/03/09 09:37:40;;;;;;;14.98;3.95;;;12.20;99.90;;;;;;6185136;23;20060;-69
2023/03/09 09:40:13;;;;;;;12.65;4.28;;;12.20;99.90;;;;;;6185247;23;20001;-67
2023/03/09 09:42:45;;;;;;;19.75;4.80;;;12.20;99.90;;;;;;6186255;23;20017;-81
2023/03/09 09:45:26;;;;;;;13.38;3.90;;;12.20;99.90;;;;;;6185011;23;20059;-80
2023/03/09 09:47:54;;;;;;;12.98;3.83;;;12.20;99.90;;;;;;6185073;23;20001;-80
2023/03/09 09:50:26;;;;;;;14.10;3.60;;;12.30;99.90;;;;;;6185223;23;20001;-84
2023/03/09 09:53:15;;;;;;;11.68;3.50;;;12.30;99.90;;;;;;6185250;23;19997;-83
2023/03/09 09:55:43;;;;;;;17.85;4.38;;;12.30;99.90;;;;;;6169149;23;20088;-83
2023/03/09 09:58:27;;;;;;;16.30;4.60;;;12.30;99.90;;;;;;6185172;23;20008;-81
2023/03/09 10:00:56;;;;;;;14.82;4.03;;;12.40;99.90;;;;;;6184715;23;20047;-83
2023/03/09 10:03:35;;;;;;;15.27;3.85;;;12.40;99.90;;;;;;6185031;23;20083;-81
2023/03/09 10:06:09;;;;;;;16.08;3.67;;;12.40;99.90;;;;;;6185210;23;20028;-79
2023/03/09 10:08:42;;;;;;;12.75;3.53;;;12.40;99.90;;;;;;6185122;23;20009;-79
2023/03/09 10:11:13;;;;;;;;;;;12.50;99.90;;;;;;6185731;23;20043;-81
2023/03/09 10:13:44;;;;;;;14.73;3.90;;;12.50;99.90;;;;;;6158905;23;20242;-78
2023/03/09 10:16:15;;;;;;;11.10;3.92;;;12.50;99.90;;;;;;6184624;23;20083;-81
2023/03/09 10:18:46;;;;;;;20.23;3.83;;;12.50;99.90;;;;;;6185192;23;20298;-77
2023/03/09 10:21:46;;;;;;;19.80;3.67;;;12.50;99.90;;;;;;6185019;23;20005;-84
2023/03/09 10:24:24;;;;;;;17.63;4.75;;;12.50;99.90;;;;;;6145922;23;20105;-71
2023/03/09 10:27:19;;;;;;;11.90;3.55;;;12.50;99.90;;;;;;6184958;23;20005;-76
2023/03/09 10:30:07;;;;;;;15.15;3.35;;;12.50;99.90;;;;;;6131946;23;20085;-78
2023/03/09 10:32:46;;;;;;;14.82;3.72;;;12.60;99.90;;;;;;6185240;23;20009;-79
2023/03/09 10:35:38;;;;;;;15.02;4.60;;;12.60;99.90;;;;;;6184563;23;19997;-70
2023/03/09 10:38:04;;;;;;;11.73;3.35;;;12.60;99.90;;;;;;6185012;23;20005;-71
2023/03/09 10:40:42;;;;;;;15.27;4.07;;;12.60;99.90;;;;;;6187341;23;20340;-66
2023/03/09 10:43:26;;;;;;;21.13;5.05;;;12.70;99.90;;;;;;6186723;23;20009;-67
2023/03/09 10:45:53;;;;;;;23.27;5.05;;;12.70;99.90;;;;;;6159666;23;20348;-67
2023/03/09 10:48:24;;;;;;;20.05;3.90;;;12.70;99.90;;;;;;6186379;23;20012;-69
2023/03/09 10:51:02;;;;;;;19.80;4.23;;;12.70;99.90;;;;;;6186756;23;20008;-80
2023/03/09 10:53:36;;;;;;;20.95;5.93;;;12.70;99.90;;;;;;6186968;23;20062;-84
2023/03/09 10:56:06;;;;;;;14.43;4.63;;;12.80;99.90;;;;;;6187171;23;20092;-85
2023/03/09 10:58:32;;;;;;;12.48;3.95;;;12.80;99.90;;;;;;6187068;23;20005;-83
2023/03/09 11:01:05;;;;;;;18.77;4.35;;;12.80;99.90;;;;;;6186449;23;20013;-81
2023/03/09 11:03:39;;;;;;;16.73;3.88;;;12.80;99.90;;;;;;6186814;23;20009;-75
2023/03/09 11:06:13;;;;;;;17.58;3.72;;;12.90;99.90;;;;;;6186703;23;20032;-75
2023/03/09 11:08:42;;;;;;;18.15;3.42;;;13.00;99.90;;;;;;6186216;23;20043;-77
2023/03/09 11:11:19;;;;;;;15.63;3.00;;;12.90;99.90;;;;;;6186162;23;20393;-67
2023/03/09 11:13:45;;;;;;;19.35;3.75;;;13.00;99.90;;;;;;6186606;23;19997;-67
2023/03/09 11:16:22;;;;;;;21.23;3.72;;;13.00;99.90;;;;;;6186394;23;20415;-67
2023/03/09 11:18:51;;;;;;;19.75;3.80;;;13.00;99.90;;;;;;6186159;23;20008;-68
2023/03/09 11:21:23;;;;;;;15.95;4.15;;;13.00;99.90;;;;;;6186306;23;20008;-67
2023/03/09 11:23:52;;;;;;;17.23;3.60;;;13.00;99.90;;;;;;6186744;23;20004;-67
2023/03/09 11:26:34;;;;;;;23.85;3.95;;;13.10;99.90;;;;;;6186364;23;20611;-67
2023/03/09 11:29:39;;;;;;;15.65;3.38;;;13.10;99.90;;;;;;6186348;23;19997;-68
2023/03/09 11:32:11;;;;;;;21.67;4.13;;;13.10;99.90;;;;;;6186293;23;20013;-68
2023/03/09 11:34:40;;;;;;;23.95;4.07;;;13.20;99.90;;;;;;6186444;23;19997;-68
2023/03/09 11:37:26;;;;;;;15.52;3.70;;;13.20;99.90;;;;;;6186552;23;20017;-67
2023/03/09 11:40:11;;;;;;;16.27;3.60;;;13.20;99.90;;;;;;6186188;23;20005;-68
2023/03/09 11:42:59;;;;;;;17.67;3.72;;;13.30;99.90;;;;;;6185790;23;20025;-68
2023/03/09 11:45:29;;;;;;;21.77;3.97;;;13.30;99.90;;;;;;6125233;23;20021;-67
2023/03/09 11:48:22;;;;;;;233.48;18.92;;;13.30;99.90;;;;;;6186225;23;20005;-67
2023/03/09 11:50:50;;;;;;;25.02;5.50;;;13.40;99.90;;;;;;6186596;23;20387;-67
2023/03/09 11:53:37;;;;;;;20.95;5.10;;;13.50;99.90;;;;;;6186252;23;19997;-68
2023/03/09 11:56:17;;;;;;;23.45;4.63;;;13.50;99.90;;;;;;6185880;23;20009;-68
2023/03/09 11:58:47;;;;;;;14.18;3.80;;;13.60;99.90;;;;;;6185939;23;20005;-68
2023/03/09 12:01:27;;;;;;;16.20;3.58;;;13.60;99.90;;;;;;6186112;23;19997;-68
2023/03/09 12:04:05;;;;;;;20.90;3.78;;;13.70;99.90;;;;;;6186013;23;20443;-68
2023/03/09 12:06:40;;;;;;;16.67;3.60;;;13.80;99.90;;;;;;6186303;23;20132;-67
2023/03/09 12:09:11;;;;;;;14.45;3.38;;;13.80;99.90;;;;;;6186054;23;20024;-68
2023/03/09 12:11:44;;;;;;;18.95;4.05;;;13.80;99.80;;;;;;6185389;23;20071;-67
2023/03/09 12:14:20;;;;;;;13.80;3.13;;;13.80;99.90;;;;;;6159030;23;20336;-68
2023/03/09 12:16:49;;;;;;;17.45;4.25;;;13.90;99.90;;;;;;6185561;23;20023;-67
2023/03/09 12:19:26;;;;;;;20.48;4.38;;;13.90;99.80;;;;;;6185710;23;20001;-67
2023/03/09 12:22:05;;;;;;;16.40;3.78;;;13.90;99.70;;;;;;6185524;23;20063;-69
2023/03/09 12:24:40;;;;;;;14.95;3.35;;;13.90;99.50;;;;;;6185805;23;20001;-67
2023/03/09 12:27:19;;;;;;;15.30;3.45;;;13.80;99.40;;;;;;6185688;23;20054;-67
2023/03/09 12:29:49;;;;;;;18.40;3.53;;;13.90;99.50;;;;;;6185784;23;20005;-67
2023/03/09 12:32:15;;;;;;;14.25;3.88;;;13.80;99.50;;;;;;6185416;23;20001;-68
2023/03/09 12:34:43;;;;;;;23.40;5.05;;;13.80;99.60;;;;;;6185472;23;20001;-68
2023/03/09 12:37:27;;;;;;;18.55;3.60;;;13.80;99.70;;;;;;6185354;23;20009;-66
2023/03/09 12:40:37;;;;;;;18.88;3.22;;;13.90;99.70;;;;;;6185773;23;20423;-70
2023/03/09 12:43:15;;;;;;;17.40;3.72;;;13.90;99.70;;;;;;6159435;23;20475;-66
2023/03/09 12:45:48;;;;;;;12.90;3.17;;;13.80;99.50;;;;;;6184948;23;20017;-66
2023/03/09 12:48:30;;;;;;;14.52;3.33;;;13.90;99.40;;;;;;6159114;23;20001;-68